sensor_id;sensor_type;location;lat;lon;timestamp;temperature;humidity
15483;DHT22;7843;50.330;7.312;2023-06-10T00:00:27;17.90;91.50
15483;DHT22;7843;50.330;7.312;2023-06-10T00:02:54;17.80;91.90
15483;DHT22;7843;50.330;7.312;2023-06-10T00:05:22;17.80;91.90
15483;DHT22;7843;50.330;7.312;2023-06-10T00:07:48;17.70;91.80
15483;DHT22;7843;50.330;7.312;2023-06-10T00:10:16;17.70;91.80
15483;DHT22;7843;50.330;7.312;2023-06-10T00:12:43;17.70;92.20
15483;DHT22;7843;50.330;7.312;2023-06-10T00:15:10;17.60;92.20
15483;DHT22;7843;50.330;7.312;2023-06-10T00:17:37;17.70;92.20
15483;DHT22;7843;50.330;7.312;2023-06-10T00:20:08;17.60;92.40
15483;DHT22;7843;50.330;7.312;2023-06-10T00:22:35;17.60;92.60
15483;DHT22;7843;50.330;7.312;2023-06-10T00:25:02;17.50;92.80
15483;DHT22;7843;50.330;7.312;2023-06-10T00:27:30;17.60;93.10
15483;DHT22;7843;50.330;7.312;2023-06-10T00:30:03;17.60;92.70
15483;DHT22;7843;50.330;7.312;2023-06-10T00:32:31;17.60;92.90
15483;DHT22;7843;50.330;7.312;2023-06-10T00:34:57;17.70;92.50
15483;DHT22;7843;50.330;7.312;2023-06-10T00:37:24;17.70;92.00
15483;DHT22;7843;50.330;7.312;2023-06-10T00:39:51;17.60;92.00
15483;DHT22;7843;50.330;7.312;2023-06-10T00:42:18;17.50;92.40
15483;DHT22;7843;50.330;7.312;2023-06-10T00:44:46;17.50;92.90
15483;DHT22;7843;50.330;7.312;2023-06-10T00:47:13;17.40;93.20
15483;DHT22;7843;50.330;7.312;2023-06-10T00:52:08;17.30;93.20
15483;DHT22;7843;50.330;7.312;2023-06-10T00:54:35;17.30;93.50
15483;DHT22;7843;50.330;7.312;2023-06-10T00:57:03;17.20;93.60
15483;DHT22;7843;50.330;7.312;2023-06-10T00:59:32;17.20;93.70
15483;DHT22;7843;50.330;7.312;2023-06-10T01:02:00;17.20;93.90
15483;DHT22;7843;50.330;7.312;2023-06-10T01:04:28;17.20;94.00
15483;DHT22;7843;50.330;7.312;2023-06-10T01:07:17;17.10;93.80
15483;DHT22;7843;50.330;7.312;2023-06-10T01:10:15;17.10;94.00
15483;DHT22;7843;50.330;7.312;2023-06-10T01:12:49;17.00;94.10
15483;DHT22;7843;50.330;7.312;2023-06-10T01:15:19;17.00;94.30
15483;DHT22;7843;50.330;7.312;2023-06-10T01:18:00;16.90;94.40
15483;DHT22;7843;50.330;7.312;2023-06-10T01:20:30;16.80;94.60
15483;DHT22;7843;50.330;7.312;2023-06-10T01:22:59;16.90;94.60
15483;DHT22;7843;50.330;7.312;2023-06-10T01:25:27;16.80;94.50
15483;DHT22;7843;50.330;7.312;2023-06-10T01:31:25;16.90;94.70
15483;DHT22;7843;50.330;7.312;2023-06-10T01:34:03;16.90;94.10
15483;DHT22;7843;50.330;7.312;2023-06-10T01:36:33;16.90;94.20
15483;DHT22;7843;50.330;7.312;2023-06-10T01:39:02;16.90;94.20
15483;DHT22;7843;50.330;7.312;2023-06-10T01:41:30;16.80;94.50
15483;DHT22;7843;50.330;7.312;2023-06-10T01:43:57;16.70;94.40
15483;DHT22;7843;50.330;7.312;2023-06-10T01:46:25;16.70;94.80
15483;DHT22;7843;50.330;7.312;2023-06-10T01:48:52;16.70;94.80
15483;DHT22;7843;50.330;7.312;2023-06-10T01:51:18;16.60;95.20
15483;DHT22;7843;50.330;7.312;2023-06-10T01:53:45;16.60;95.40
15483;DHT22;7843;50.330;7.312;2023-06-10T01:56:12;16.60;95.40
15483;DHT22;7843;50.330;7.312;2023-06-10T01:58:45;16.50;95.50
15483;DHT22;7843;50.330;7.312;2023-06-10T02:01:12;16.50;95.40
15483;DHT22;7843;50.330;7.312;2023-06-10T02:03:38;16.50;95.40
15483;DHT22;7843;50.330;7.312;2023-06-10T02:06:05;16.50;95.70
15483;DHT22;7843;50.330;7.312;2023-06-10T02:08:32;16.40;95.70
15483;DHT22;7843;50.330;7.312;2023-06-10T02:10:59;16.40;95.70
15483;DHT22;7843;50.330;7.312;2023-06-10T02:13:26;16.30;95.80
15483;DHT22;7843;50.330;7.312;2023-06-10T02:15:52;16.30;95.90
15483;DHT22;7843;50.330;7.312;2023-06-10T02:18:20;16.40;96.00
15483;DHT22;7843;50.330;7.312;2023-06-10T02:20:48;16.40;95.90
15483;DHT22;7843;50.330;7.312;2023-06-10T02:23:15;16.40;95.70
15483;DHT22;7843;50.330;7.312;2023-06-10T02:25:42;16.30;95.90
15483;DHT22;7843;50.330;7.312;2023-06-10T02:28:08;16.20;95.90
15483;DHT22;7843;50.330;7.312;2023-06-10T02:30:42;16.20;96.20
15483;DHT22;7843;50.330;7.312;2023-06-10T02:33:08;16.20;96.40
15483;DHT22;7843;50.330;7.312;2023-06-10T02:35:38;16.20;96.40
15483;DHT22;7843;50.330;7.312;2023-06-10T02:38:05;16.10;96.40
15483;DHT22;7843;50.330;7.312;2023-06-10T02:40:32;16.10;96.50
15483;DHT22;7843;50.330;7.312;2023-06-10T02:42:59;16.10;96.50
15483;DHT22;7843;50.330;7.312;2023-06-10T02:45:26;16.10;96.60
15483;DHT22;7843;50.330;7.312;2023-06-10T02:47:52;16.00;96.50
15483;DHT22;7843;50.330;7.312;2023-06-10T02:50:22;15.90;96.70
15483;DHT22;7843;50.330;7.312;2023-06-10T02:52:49;16.00;96.70
15483;DHT22;7843;50.330;7.312;2023-06-10T02:55:16;16.00;96.80
15483;DHT22;7843;50.330;7.312;2023-06-10T02:57:43;16.00;96.60
15483;DHT22;7843;50.330;7.312;2023-06-10T03:00:10;16.00;96.70
15483;DHT22;7843;50.330;7.312;2023-06-10T03:02:38;16.00;96.80
15483;DHT22;7843;50.330;7.312;2023-06-10T03:05:06;15.90;96.90
15483;DHT22;7843;50.330;7.312;2023-06-10T03:07:37;15.80;97.10
15483;DHT22;7843;50.330;7.312;2023-06-10T03:10:04;15.80;97.20
15483;DHT22;7843;50.330;7.312;2023-06-10T03:12:31;15.80;97.20
15483;DHT22;7843;50.330;7.312;2023-06-10T03:14:58;15.80;97.40
15483;DHT22;7843;50.330;7.312;2023-06-10T03:17:25;15.70;97.50
15483;DHT22;7843;50.330;7.312;2023-06-10T03:19:52;15.80;97.40
15483;DHT22;7843;50.330;7.312;2023-06-10T03:22:18;15.80;97.40
15483;DHT22;7843;50.330;7.312;2023-06-10T03:24:45;15.80;97.20
15483;DHT22;7843;50.330;7.312;2023-06-10T03:27:13;15.80;97.30
15483;DHT22;7843;50.330;7.312;2023-06-10T03:29:40;15.80;97.20
15483;DHT22;7843;50.330;7.312;2023-06-10T03:32:07;15.80;97.50
15483;DHT22;7843;50.330;7.312;2023-06-10T03:34:37;15.80;97.20
15483;DHT22;7843;50.330;7.312;2023-06-10T03:37:03;15.70;97.40
15483;DHT22;7843;50.330;7.312;2023-06-10T03:39:30;15.70;97.70
15483;DHT22;7843;50.330;7.312;2023-06-10T03:41:57;15.70;97.70
15483;DHT22;7843;50.330;7.312;2023-06-10T03:44:27;15.70;97.90
15483;DHT22;7843;50.330;7.312;2023-06-10T03:46:55;15.80;97.70
15483;DHT22;7843;50.330;7.312;2023-06-10T03:49:22;15.70;97.70
15483;DHT22;7843;50.330;7.312;2023-06-10T03:51:53;15.70;97.90
15483;DHT22;7843;50.330;7.312;2023-06-10T03:54:20;15.70;98.00
15483;DHT22;7843;50.330;7.312;2023-06-10T03:56:47;15.80;97.90
15483;DHT22;7843;50.330;7.312;2023-06-10T03:59:14;15.80;97.60
15483;DHT22;7843;50.330;7.312;2023-06-10T04:01:41;15.80;97.50
15483;DHT22;7843;50.330;7.312;2023-06-10T04:04:08;15.80;97.70
15483;DHT22;7843;50.330;7.312;2023-06-10T04:06:35;15.80;98.00
15483;DHT22;7843;50.330;7.312;2023-06-10T04:09:03;15.80;98.20
15483;DHT22;7843;50.330;7.312;2023-06-10T04:11:30;15.90;98.40
15483;DHT22;7843;50.330;7.312;2023-06-10T04:13:57;15.90;98.30
15483;DHT22;7843;50.330;7.312;2023-06-10T04:16:23;16.00;98.10
15483;DHT22;7843;50.330;7.312;2023-06-10T04:18:50;16.00;98.00
15483;DHT22;7843;50.330;7.312;2023-06-10T04:21:17;16.10;98.10
15483;DHT22;7843;50.330;7.312;2023-06-10T04:23:45;16.10;98.20
15483;DHT22;7843;50.330;7.312;2023-06-10T04:26:12;16.30;98.00
15483;DHT22;7843;50.330;7.312;2023-06-10T04:28:39;16.20;97.90
15483;DHT22;7843;50.330;7.312;2023-06-10T04:31:05;16.30;98.00
15483;DHT22;7843;50.330;7.312;2023-06-10T04:33:32;16.40;98.10
15483;DHT22;7843;50.330;7.312;2023-06-10T04:35:59;16.50;98.40
15483;DHT22;7843;50.330;7.312;2023-06-10T04:38:26;16.60;98.30
15483;DHT22;7843;50.330;7.312;2023-06-10T04:40:53;16.70;98.30
15483;DHT22;7843;50.330;7.312;2023-06-10T04:43:19;16.80;98.50
15483;DHT22;7843;50.330;7.312;2023-06-10T04:45:47;16.90;98.60
15483;DHT22;7843;50.330;7.312;2023-06-10T04:48:14;16.90;97.50
15483;DHT22;7843;50.330;7.312;2023-06-10T04:50:40;17.00;97.10
15483;DHT22;7843;50.330;7.312;2023-06-10T04:53:07;17.00;97.40
15483;DHT22;7843;50.330;7.312;2023-06-10T04:55:34;17.10;97.70
15483;DHT22;7843;50.330;7.312;2023-06-10T04:58:02;17.20;97.80
15483;DHT22;7843;50.330;7.312;2023-06-10T05:00:29;17.30;97.10
15483;DHT22;7843;50.330;7.312;2023-06-10T05:02:56;17.30;97.20
15483;DHT22;7843;50.330;7.312;2023-06-10T05:05:22;17.40;96.70
15483;DHT22;7843;50.330;7.312;2023-06-10T05:07:49;17.40;96.90
15483;DHT22;7843;50.330;7.312;2023-06-10T05:10:16;17.50;96.50
15483;DHT22;7843;50.330;7.312;2023-06-10T05:12:43;17.50;95.90
15483;DHT22;7843;50.330;7.312;2023-06-10T05:15:10;17.60;96.00
15483;DHT22;7843;50.330;7.312;2023-06-10T05:17:37;17.70;96.30
15483;DHT22;7843;50.330;7.312;2023-06-10T05:22:31;17.90;96.60
15483;DHT22;7843;50.330;7.312;2023-06-10T05:24:58;17.90;96.20
15483;DHT22;7843;50.330;7.312;2023-06-10T05:27:25;18.00;96.20
15483;DHT22;7843;50.330;7.312;2023-06-10T05:29:52;18.10;96.30
15483;DHT22;7843;50.330;7.312;2023-06-10T05:32:19;18.20;96.10
15483;DHT22;7843;50.330;7.312;2023-06-10T05:34:45;18.30;96.20
15483;DHT22;7843;50.330;7.312;2023-06-10T05:37:12;18.40;96.20
15483;DHT22;7843;50.330;7.312;2023-06-10T05:39:39;18.50;96.20
15483;DHT22;7843;50.330;7.312;2023-06-10T05:42:07;18.60;96.00
15483;DHT22;7843;50.330;7.312;2023-06-10T05:44:34;18.70;96.20
15483;DHT22;7843;50.330;7.312;2023-06-10T05:47:01;18.80;96.50
15483;DHT22;7843;50.330;7.312;2023-06-10T05:49:28;18.90;94.80
15483;DHT22;7843;50.330;7.312;2023-06-10T05:51:55;19.00;94.70
15483;DHT22;7843;50.330;7.312;2023-06-10T05:54:24;19.20;91.80
15483;DHT22;7843;50.330;7.312;2023-06-10T05:56:51;19.30;90.90
15483;DHT22;7843;50.330;7.312;2023-06-10T05:59:17;19.40;88.30
15483;DHT22;7843;50.330;7.312;2023-06-10T06:01:44;19.50;86.30
15483;DHT22;7843;50.330;7.312;2023-06-10T06:04:11;19.60;87.90
15483;DHT22;7843;50.330;7.312;2023-06-10T06:06:39;19.70;88.20
15483;DHT22;7843;50.330;7.312;2023-06-10T06:09:07;19.80;87.50
15483;DHT22;7843;50.330;7.312;2023-06-10T06:11:34;19.90;86.70
15483;DHT22;7843;50.330;7.312;2023-06-10T06:14:01;20.00;87.40
15483;DHT22;7843;50.330;7.312;2023-06-10T06:16:28;20.10;86.80
15483;DHT22;7843;50.330;7.312;2023-06-10T06:18:55;20.20;84.30
15483;DHT22;7843;50.330;7.312;2023-06-10T06:21:21;20.30;83.60
15483;DHT22;7843;50.330;7.312;2023-06-10T06:23:48;20.40;82.80
15483;DHT22;7843;50.330;7.312;2023-06-10T06:26:15;20.40;81.70
15483;DHT22;7843;50.330;7.312;2023-06-10T06:28:42;20.50;82.90
15483;DHT22;7843;50.330;7.312;2023-06-10T06:31:08;20.50;85.10
15483;DHT22;7843;50.330;7.312;2023-06-10T06:33:35;20.70;85.50
15483;DHT22;7843;50.330;7.312;2023-06-10T06:36:02;20.70;80.80
15483;DHT22;7843;50.330;7.312;2023-06-10T06:38:29;20.80;80.90
15483;DHT22;7843;50.330;7.312;2023-06-10T06:40:56;20.80;82.70
15483;DHT22;7843;50.330;7.312;2023-06-10T06:43:22;20.90;83.50
15483;DHT22;7843;50.330;7.312;2023-06-10T06:45:49;21.00;82.00
15483;DHT22;7843;50.330;7.312;2023-06-10T06:48:16;21.20;82.20
15483;DHT22;7843;50.330;7.312;2023-06-10T06:50:43;21.30;80.60
15483;DHT22;7843;50.330;7.312;2023-06-10T06:53:09;21.40;82.10
15483;DHT22;7843;50.330;7.312;2023-06-10T06:55:36;21.50;81.70
15483;DHT22;7843;50.330;7.312;2023-06-10T06:58:03;21.50;82.70
15483;DHT22;7843;50.330;7.312;2023-06-10T07:00:30;21.60;81.90
15483;DHT22;7843;50.330;7.312;2023-06-10T07:02:58;21.70;82.20
15483;DHT22;7843;50.330;7.312;2023-06-10T07:05:25;21.70;81.70
15483;DHT22;7843;50.330;7.312;2023-06-10T07:07:54;21.90;80.00
15483;DHT22;7843;50.330;7.312;2023-06-10T07:10:23;21.90;78.00
15483;DHT22;7843;50.330;7.312;2023-06-10T07:12:51;22.00;79.10
15483;DHT22;7843;50.330;7.312;2023-06-10T07:15:18;22.00;79.10
15483;DHT22;7843;50.330;7.312;2023-06-10T07:17:45;22.10;79.80
15483;DHT22;7843;50.330;7.312;2023-06-10T07:20:12;22.20;80.40
15483;DHT22;7843;50.330;7.312;2023-06-10T07:22:42;22.20;79.50
15483;DHT22;7843;50.330;7.312;2023-06-10T07:25:09;22.40;77.20
15483;DHT22;7843;50.330;7.312;2023-06-10T07:27:36;22.40;79.10
15483;DHT22;7843;50.330;7.312;2023-06-10T07:30:05;22.40;79.50
15483;DHT22;7843;50.330;7.312;2023-06-10T07:32:33;22.50;76.90
15483;DHT22;7843;50.330;7.312;2023-06-10T07:35:00;22.50;78.90
15483;DHT22;7843;50.330;7.312;2023-06-10T07:37:27;22.70;79.10
15483;DHT22;7843;50.330;7.312;2023-06-10T07:39:54;22.80;77.40
15483;DHT22;7843;50.330;7.312;2023-06-10T07:42:21;22.90;75.70
15483;DHT22;7843;50.330;7.312;2023-06-10T07:44:48;23.00;75.40
15483;DHT22;7843;50.330;7.312;2023-06-10T07:47:14;23.00;77.60
15483;DHT22;7843;50.330;7.312;2023-06-10T07:49:41;23.10;78.40
15483;DHT22;7843;50.330;7.312;2023-06-10T07:52:08;23.20;77.80
15483;DHT22;7843;50.330;7.312;2023-06-10T07:54:35;23.30;76.60
15483;DHT22;7843;50.330;7.312;2023-06-10T07:57:02;23.30;77.30
15483;DHT22;7843;50.330;7.312;2023-06-10T07:59:29;23.50;77.80
15483;DHT22;7843;50.330;7.312;2023-06-10T08:01:55;23.60;75.80
15483;DHT22;7843;50.330;7.312;2023-06-10T08:04:22;23.70;77.20
15483;DHT22;7843;50.330;7.312;2023-06-10T08:06:49;23.80;75.20
15483;DHT22;7843;50.330;7.312;2023-06-10T08:09:16;23.80;76.80
15483;DHT22;7843;50.330;7.312;2023-06-10T08:11:46;24.00;76.80
15483;DHT22;7843;50.330;7.312;2023-06-10T08:14:13;24.10;75.20
15483;DHT22;7843;50.330;7.312;2023-06-10T08:16:40;24.20;73.40
15483;DHT22;7843;50.330;7.312;2023-06-10T08:19:06;24.20;75.30
15483;DHT22;7843;50.330;7.312;2023-06-10T08:21:35;24.30;73.90
15483;DHT22;7843;50.330;7.312;2023-06-10T08:24:07;24.30;74.00
15483;DHT22;7843;50.330;7.312;2023-06-10T08:26:33;24.40;73.20
15483;DHT22;7843;50.330;7.312;2023-06-10T08:29:00;24.50;73.90
15483;DHT22;7843;50.330;7.312;2023-06-10T08:31:27;24.60;73.90
15483;DHT22;7843;50.330;7.312;2023-06-10T08:33:54;24.70;71.90
15483;DHT22;7843;50.330;7.312;2023-06-10T08:36:20;24.80;72.60
15483;DHT22;7843;50.330;7.312;2023-06-10T08:38:47;24.90;72.90
15483;DHT22;7843;50.330;7.312;2023-06-10T08:41:17;25.00;72.30
15483;DHT22;7843;50.330;7.312;2023-06-10T08:43:48;25.10;72.80
15483;DHT22;7843;50.330;7.312;2023-06-10T08:46:20;25.20;71.40
15483;DHT22;7843;50.330;7.312;2023-06-10T08:48:49;25.30;72.70
15483;DHT22;7843;50.330;7.312;2023-06-10T08:51:23;25.40;73.10
15483;DHT22;7843;50.330;7.312;2023-06-10T08:53:58;25.50;71.80
15483;DHT22;7843;50.330;7.312;2023-06-10T08:56:28;25.50;68.50
15483;DHT22;7843;50.330;7.312;2023-06-10T08:58:57;25.40;69.10
15483;DHT22;7843;50.330;7.312;2023-06-10T09:01:26;25.50;70.00
15483;DHT22;7843;50.330;7.312;2023-06-10T09:03:53;25.60;69.80
15483;DHT22;7843;50.330;7.312;2023-06-10T09:06:21;25.70;71.40
15483;DHT22;7843;50.330;7.312;2023-06-10T09:08:48;25.80;70.90
15483;DHT22;7843;50.330;7.312;2023-06-10T09:11:16;25.90;70.40
15483;DHT22;7843;50.330;7.312;2023-06-10T09:13:44;26.00;70.00
15483;DHT22;7843;50.330;7.312;2023-06-10T09:16:11;26.10;70.00
15483;DHT22;7843;50.330;7.312;2023-06-10T09:18:39;26.10;68.00
15483;DHT22;7843;50.330;7.312;2023-06-10T09:21:06;26.10;69.80
15483;DHT22;7843;50.330;7.312;2023-06-10T09:23:33;26.20;70.60
15483;DHT22;7843;50.330;7.312;2023-06-10T09:26:00;26.30;69.50
15483;DHT22;7843;50.330;7.312;2023-06-10T09:28:27;26.30;69.20
15483;DHT22;7843;50.330;7.312;2023-06-10T09:31:04;26.40;70.00
15483;DHT22;7843;50.330;7.312;2023-06-10T09:33:39;26.60;70.70
15483;DHT22;7843;50.330;7.312;2023-06-10T09:36:06;26.70;68.20
15483;DHT22;7843;50.330;7.312;2023-06-10T09:38:34;26.80;68.70
15483;DHT22;7843;50.330;7.312;2023-06-10T09:41:02;26.90;68.60
15483;DHT22;7843;50.330;7.312;2023-06-10T09:46:07;26.90;67.70
15483;DHT22;7843;50.330;7.312;2023-06-10T09:48:44;27.00;66.70
15483;DHT22;7843;50.330;7.312;2023-06-10T09:51:12;27.00;68.50
15483;DHT22;7843;50.330;7.312;2023-06-10T09:53:40;27.20;67.60
15483;DHT22;7843;50.330;7.312;2023-06-10T09:56:07;27.20;67.10
15483;DHT22;7843;50.330;7.312;2023-06-10T09:58:39;27.30;67.40
15483;DHT22;7843;50.330;7.312;2023-06-10T10:01:09;27.60;66.50
15483;DHT22;7843;50.330;7.312;2023-06-10T10:03:50;27.60;66.10
15483;DHT22;7843;50.330;7.312;2023-06-10T10:06:19;27.70;65.70
15483;DHT22;7843;50.330;7.312;2023-06-10T10:08:48;27.80;66.80
15483;DHT22;7843;50.330;7.312;2023-06-10T10:11:22;27.90;65.20
15483;DHT22;7843;50.330;7.312;2023-06-10T10:13:51;28.00;64.50
15483;DHT22;7843;50.330;7.312;2023-06-10T10:16:30;28.00;65.20
15483;DHT22;7843;50.330;7.312;2023-06-10T10:19:07;28.00;63.70
15483;DHT22;7843;50.330;7.312;2023-06-10T10:21:39;28.10;64.10
15483;DHT22;7843;50.330;7.312;2023-06-10T10:24:21;28.20;63.70
15483;DHT22;7843;50.330;7.312;2023-06-10T10:26:50;28.20;63.90
15483;DHT22;7843;50.330;7.312;2023-06-10T10:29:33;28.30;64.00
15483;DHT22;7843;50.330;7.312;2023-06-10T10:32:02;28.50;64.10
15483;DHT22;7843;50.330;7.312;2023-06-10T10:37:10;28.70;59.90
15483;DHT22;7843;50.330;7.312;2023-06-10T10:39:37;28.80;61.70
15483;DHT22;7843;50.330;7.312;2023-06-10T10:42:05;28.90;59.70
15483;DHT22;7843;50.330;7.312;2023-06-10T10:44:37;29.10;59.80
15483;DHT22;7843;50.330;7.312;2023-06-10T10:47:08;29.20;58.40
15483;DHT22;7843;50.330;7.312;2023-06-10T10:49:37;29.20;57.20
15483;DHT22;7843;50.330;7.312;2023-06-10T10:52:04;29.30;56.70
15483;DHT22;7843;50.330;7.312;2023-06-10T10:54:36;29.40;58.00
15483;DHT22;7843;50.330;7.312;2023-06-10T10:57:17;29.60;58.10
15483;DHT22;7843;50.330;7.312;2023-06-10T10:59:57;29.80;58.00
15483;DHT22;7843;50.330;7.312;2023-06-10T11:02:45;29.90;58.60
15483;DHT22;7843;50.330;7.312;2023-06-10T11:05:16;30.00;54.50
15483;DHT22;7843;50.330;7.312;2023-06-10T11:07:54;30.10;56.80
15483;DHT22;7843;50.330;7.312;2023-06-10T11:10:36;30.30;54.90
15483;DHT22;7843;50.330;7.312;2023-06-10T11:13:08;30.50;54.60
15483;DHT22;7843;50.330;7.312;2023-06-10T11:15:39;30.60;53.40
15483;DHT22;7843;50.330;7.312;2023-06-10T11:18:29;30.70;52.90
15483;DHT22;7843;50.330;7.312;2023-06-10T11:21:00;30.90;52.20
15483;DHT22;7843;50.330;7.312;2023-06-10T11:28:42;31.10;51.10
15483;DHT22;7843;50.330;7.312;2023-06-10T11:31:22;31.30;51.10
15483;DHT22;7843;50.330;7.312;2023-06-10T11:34:00;31.30;51.80
15483;DHT22;7843;50.330;7.312;2023-06-10T11:36:28;31.50;50.70
15483;DHT22;7843;50.330;7.312;2023-06-10T11:38:57;31.70;50.90
15483;DHT22;7843;50.330;7.312;2023-06-10T11:41:25;31.90;50.50
15483;DHT22;7843;50.330;7.312;2023-06-10T11:43:54;32.10;49.30
15483;DHT22;7843;50.330;7.312;2023-06-10T11:46:23;32.10;49.00
15483;DHT22;7843;50.330;7.312;2023-06-10T11:48:55;32.30;51.10
15483;DHT22;7843;50.330;7.312;2023-06-10T11:51:24;32.50;49.10
15483;DHT22;7843;50.330;7.312;2023-06-10T11:53:52;32.70;49.80
15483;DHT22;7843;50.330;7.312;2023-06-10T11:56:23;32.90;49.30
15483;DHT22;7843;50.330;7.312;2023-06-10T11:58:59;33.00;48.60
15483;DHT22;7843;50.330;7.312;2023-06-10T12:01:32;33.10;49.70
15483;DHT22;7843;50.330;7.312;2023-06-10T12:04:07;33.10;48.50
15483;DHT22;7843;50.330;7.312;2023-06-10T12:06:38;33.20;48.90
15483;DHT22;7843;50.330;7.312;2023-06-10T12:09:12;33.60;48.30
15483;DHT22;7843;50.330;7.312;2023-06-10T12:11:44;33.70;47.70
15483;DHT22;7843;50.330;7.312;2023-06-10T12:14:11;33.50;47.50
15483;DHT22;7843;50.330;7.312;2023-06-10T12:16:38;33.70;48.00
15483;DHT22;7843;50.330;7.312;2023-06-10T12:19:05;33.50;48.00
15483;DHT22;7843;50.330;7.312;2023-06-10T12:21:33;33.10;49.10
15483;DHT22;7843;50.330;7.312;2023-06-10T12:24:03;33.40;49.10
15483;DHT22;7843;50.330;7.312;2023-06-10T12:29:24;33.70;49.30
15483;DHT22;7843;50.330;7.312;2023-06-10T12:32:01;34.00;47.70
15483;DHT22;7843;50.330;7.312;2023-06-10T12:34:40;34.30;46.80
15483;DHT22;7843;50.330;7.312;2023-06-10T12:37:11;34.40;47.70
15483;DHT22;7843;50.330;7.312;2023-06-10T12:39:41;34.40;46.70
15483;DHT22;7843;50.330;7.312;2023-06-10T12:42:09;34.70;47.70
15483;DHT22;7843;50.330;7.312;2023-06-10T12:44:39;34.50;46.60
15483;DHT22;7843;50.330;7.312;2023-06-10T12:47:10;34.10;48.00
15483;DHT22;7843;50.330;7.312;2023-06-10T12:49:39;34.30;46.50
15483;DHT22;7843;50.330;7.312;2023-06-10T12:52:06;34.30;46.80
15483;DHT22;7843;50.330;7.312;2023-06-10T12:54:33;34.50;46.40
15483;DHT22;7843;50.330;7.312;2023-06-10T12:57:01;34.70;45.60
15483;DHT22;7843;50.330;7.312;2023-06-10T12:59:28;34.90;47.30
15483;DHT22;7843;50.330;7.312;2023-06-10T13:01:55;35.40;46.20
15483;DHT22;7843;50.330;7.312;2023-06-10T13:04:22;35.60;45.60
15483;DHT22;7843;50.330;7.312;2023-06-10T13:06:49;36.00;46.00
15483;DHT22;7843;50.330;7.312;2023-06-10T13:09:16;36.30;45.60
15483;DHT22;7843;50.330;7.312;2023-06-10T13:11:43;36.50;45.00
15483;DHT22;7843;50.330;7.312;2023-06-10T13:14:11;36.60;45.40
15483;DHT22;7843;50.330;7.312;2023-06-10T13:16:37;36.70;45.20
15483;DHT22;7843;50.330;7.312;2023-06-10T13:19:05;36.40;44.50
15483;DHT22;7843;50.330;7.312;2023-06-10T13:21:33;35.90;45.00
15483;DHT22;7843;50.330;7.312;2023-06-10T13:24:00;36.10;45.90
15483;DHT22;7843;50.330;7.312;2023-06-10T13:26:27;36.20;45.40
15483;DHT22;7843;50.330;7.312;2023-06-10T13:28:54;36.30;45.60
15483;DHT22;7843;50.330;7.312;2023-06-10T13:31:21;36.00;45.80
15483;DHT22;7843;50.330;7.312;2023-06-10T13:33:47;34.90;46.50
15483;DHT22;7843;50.330;7.312;2023-06-10T13:36:14;33.90;47.70
15483;DHT22;7843;50.330;7.312;2023-06-10T13:38:41;33.90;47.90
15483;DHT22;7843;50.330;7.312;2023-06-10T13:41:08;34.30;48.80
15483;DHT22;7843;50.330;7.312;2023-06-10T13:43:36;34.90;47.70
15483;DHT22;7843;50.330;7.312;2023-06-10T13:46:03;35.30;46.20
15483;DHT22;7843;50.330;7.312;2023-06-10T13:48:30;35.70;45.30
15483;DHT22;7843;50.330;7.312;2023-06-10T13:50:57;35.80;45.90
15483;DHT22;7843;50.330;7.312;2023-06-10T13:53:24;35.90;46.20
15483;DHT22;7843;50.330;7.312;2023-06-10T13:55:51;36.00;46.70
15483;DHT22;7843;50.330;7.312;2023-06-10T13:58:18;36.30;45.70
15483;DHT22;7843;50.330;7.312;2023-06-10T14:00:44;36.50;45.20
15483;DHT22;7843;50.330;7.312;2023-06-10T14:03:12;36.60;44.70
15483;DHT22;7843;50.330;7.312;2023-06-10T14:05:38;35.90;44.40
15483;DHT22;7843;50.330;7.312;2023-06-10T14:08:05;34.90;45.80
15483;DHT22;7843;50.330;7.312;2023-06-10T14:10:32;34.00;47.00
15483;DHT22;7843;50.330;7.312;2023-06-10T14:12:59;34.10;48.00
15483;DHT22;7843;50.330;7.312;2023-06-10T14:15:27;34.30;47.70
15483;DHT22;7843;50.330;7.312;2023-06-10T14:17:53;34.50;47.10
15483;DHT22;7843;50.330;7.312;2023-06-10T14:20:20;34.80;47.30
15483;DHT22;7843;50.330;7.312;2023-06-10T14:22:47;35.10;46.70
15483;DHT22;7843;50.330;7.312;2023-06-10T14:25:13;35.20;45.60
15483;DHT22;7843;50.330;7.312;2023-06-10T14:27:40;35.30;45.90
15483;DHT22;7843;50.330;7.312;2023-06-10T14:30:07;35.30;45.10
15483;DHT22;7843;50.330;7.312;2023-06-10T14:32:34;35.30;45.80
15483;DHT22;7843;50.330;7.312;2023-06-10T14:35:01;35.40;45.20
15483;DHT22;7843;50.330;7.312;2023-06-10T14:37:27;35.40;44.60
15483;DHT22;7843;50.330;7.312;2023-06-10T14:39:54;35.50;44.70
15483;DHT22;7843;50.330;7.312;2023-06-10T14:42:21;35.50;42.90
15483;DHT22;7843;50.330;7.312;2023-06-10T14:44:47;34.90;43.60
15483;DHT22;7843;50.330;7.312;2023-06-10T14:47:14;34.70;42.90
15483;DHT22;7843;50.330;7.312;2023-06-10T14:49:41;34.90;42.90
15483;DHT22;7843;50.330;7.312;2023-06-10T14:52:08;34.80;42.70
15483;DHT22;7843;50.330;7.312;2023-06-10T14:54:35;34.70;44.00
15483;DHT22;7843;50.330;7.312;2023-06-10T14:57:02;34.80;44.00
15483;DHT22;7843;50.330;7.312;2023-06-10T14:59:29;34.90;43.60
15483;DHT22;7843;50.330;7.312;2023-06-10T15:01:56;34.90;43.20
15483;DHT22;7843;50.330;7.312;2023-06-10T15:04:23;34.80;43.40
15483;DHT22;7843;50.330;7.312;2023-06-10T15:06:50;34.70;43.40
15483;DHT22;7843;50.330;7.312;2023-06-10T15:09:19;34.60;43.50
15483;DHT22;7843;50.330;7.312;2023-06-10T15:11:47;34.60;44.30
15483;DHT22;7843;50.330;7.312;2023-06-10T15:14:14;34.60;44.60
15483;DHT22;7843;50.330;7.312;2023-06-10T15:16:40;34.70;43.20
15483;DHT22;7843;50.330;7.312;2023-06-10T15:19:07;34.50;44.20
15483;DHT22;7843;50.330;7.312;2023-06-10T15:21:35;34.40;44.10
15483;DHT22;7843;50.330;7.312;2023-06-10T15:24:03;34.40;44.50
15483;DHT22;7843;50.330;7.312;2023-06-10T15:26:29;34.40;44.50
15483;DHT22;7843;50.330;7.312;2023-06-10T15:28:56;34.10;44.40
15483;DHT22;7843;50.330;7.312;2023-06-10T15:31:23;33.90;45.20
15483;DHT22;7843;50.330;7.312;2023-06-10T15:33:50;33.80;45.50
15483;DHT22;7843;50.330;7.312;2023-06-10T15:36:19;33.90;45.70
15483;DHT22;7843;50.330;7.312;2023-06-10T15:38:46;33.80;45.00
15483;DHT22;7843;50.330;7.312;2023-06-10T15:41:13;33.70;44.70
15483;DHT22;7843;50.330;7.312;2023-06-10T15:43:40;33.70;46.20
15483;DHT22;7843;50.330;7.312;2023-06-10T15:46:08;33.80;45.80
15483;DHT22;7843;50.330;7.312;2023-06-10T15:48:35;33.70;44.60
15483;DHT22;7843;50.330;7.312;2023-06-10T15:51:01;33.50;44.50
15483;DHT22;7843;50.330;7.312;2023-06-10T15:53:28;33.50;45.50
15483;DHT22;7843;50.330;7.312;2023-06-10T15:55:55;33.40;45.20
15483;DHT22;7843;50.330;7.312;2023-06-10T15:58:21;33.40;45.60
15483;DHT22;7843;50.330;7.312;2023-06-10T16:00:48;33.40;45.20
15483;DHT22;7843;50.330;7.312;2023-06-10T16:03:15;33.30;45.60
15483;DHT22;7843;50.330;7.312;2023-06-10T16:05:42;33.00;46.40
15483;DHT22;7843;50.330;7.312;2023-06-10T16:08:08;32.90;47.00
15483;DHT22;7843;50.330;7.312;2023-06-10T16:10:35;32.90;46.80
15483;DHT22;7843;50.330;7.312;2023-06-10T16:13:02;32.90;46.30